sensor_id;sensor_type;location;lat;lon;timestamp;pressure;altitude;pressure_sealevel;temperature;humidity
44127;BME280;29786;50.798;7.302;2023-02-18T00:04:24;99920;;;10.02;100
44127;BME280;29786;50.798;7.302;2023-02-18T00:09:28;99920;;;10.02;100
44127;BME280;29786;50.798;7.302;2023-02-18T00:13:23;99930;;;10;100
44127;BME280;29786;50.798;7.302;2023-02-18T00:17:18;99930;;;9.97;100
44127;BME280;29786;50.798;7.302;2023-02-18T00:22:19;99930;;;10.02;100
44127;BME280;29786;50.798;7.302;2023-02-18T00:26:18;99920;;;10.02;100
44127;BME280;29786;50.798;7.302;2023-02-18T00:31:20;99920;;;9.99;100
44127;BME280;29786;50.798;7.302;2023-02-18T00:36:20;99920;;;9.88;100
44127;BME280;29786;50.798;7.302;2023-02-18T00:36:57;99910;;;9.91;100
44127;BME280;29786;50.798;7.302;2023-02-18T00:37:34;99920;;;10.1;100
44127;BME280;29786;50.798;7.302;2023-02-18T00:38:11;99920;;;10.1;100
44127;BME280;29786;50.798;7.302;2023-02-18T00:40:27;99900;;;9.85;100
44127;BME280;29786;50.798;7.302;2023-02-18T00:44:21;99900;;;9.85;100
44127;BME280;29786;50.798;7.302;2023-02-18T00:49:22;99900;;;9.87;100
44127;BME280;29786;50.798;7.302;2023-02-18T00:54:23;99890;;;9.91;100
44127;BME280;29786;50.798;7.302;2023-02-18T00:59:24;99880;;;9.89;100
44127;BME280;29786;50.798;7.302;2023-02-18T01:03:19;99880;;;9.89;100
44127;BME280;29786;50.798;7.302;2023-02-18T01:08:24;99870;;;9.87;100
44127;BME280;29786;50.798;7.302;2023-02-18T01:13:25;99880;;;9.82;100
44127;BME280;29786;50.798;7.302;2023-02-18T01:17:19;99880;;;9.81;100
44127;BME280;29786;50.798;7.302;2023-02-18T01:17:56;99900;;;9.85;100
44127;BME280;29786;50.798;7.302;2023-02-18T01:22:32;99870;;;9.8;100
44127;BME280;29786;50.798;7.302;2023-02-18T01:25:21;99870;;;9.82;100
44127;BME280;29786;50.798;7.302;2023-02-18T01:30:22;99860;;;9.84;100
44127;BME280;29786;50.798;7.302;2023-02-18T01:35:31;99860;;;9.84;100
44127;BME280;29786;50.798;7.302;2023-02-18T01:38:20;99860;;;9.85;100
44127;BME280;29786;50.798;7.302;2023-02-18T01:43:25;99860;;;9.84;100
44127;BME280;29786;50.798;7.302;2023-02-18T01:47:20;99870;;;9.81;100
44127;BME280;29786;50.798;7.302;2023-02-18T01:47:57;99870;;;9.85;100
44127;BME280;29786;50.798;7.302;2023-02-18T01:48:38;99790;;;9.29;100
44127;BME280;29786;50.798;7.302;2023-02-18T01:49:11;99920;;;9.85;100
44127;BME280;29786;50.798;7.302;2023-02-18T01:51:28;99860;;;9.81;100
44127;BME280;29786;50.798;7.302;2023-02-18T01:55:22;99850;;;9.85;100
44127;BME280;29786;50.798;7.302;2023-02-18T01:59:27;99840;;;9.87;100
44127;BME280;29786;50.798;7.302;2023-02-18T02:03:20;99850;;;9.85;100
44127;BME280;29786;50.798;7.302;2023-02-18T02:03:57;99850;;;9.85;100
44127;BME280;29786;50.798;7.302;2023-02-18T02:04:34;99860;;;9.79;100
44127;BME280;29786;50.798;7.302;2023-02-18T02:05:11;99850;;;9.79;100
44127;BME280;29786;50.798;7.302;2023-02-18T02:07:27;99850;;;9.84;100
44127;BME280;29786;50.798;7.302;2023-02-18T02:11:31;99850;;;9.89;100
44127;BME280;29786;50.798;7.302;2023-02-18T02:15:23;99840;;;9.96;100
44127;BME280;29786;50.798;7.302;2023-02-18T02:20:37;99830;;;9.89;100
44127;BME280;29786;50.798;7.302;2023-02-18T02:25:15;99850;;;9.83;100
44127;BME280;29786;50.798;7.302;2023-02-18T02:25:29;99830;;;9.87;100
44127;BME280;29786;50.798;7.302;2023-02-18T02:28:25;99820;;;9.85;100
44127;BME280;29786;50.798;7.302;2023-02-18T02:29:10;99820;;;9.85;100
44127;BME280;29786;50.798;7.302;2023-02-18T02:32:27;99810;;;9.89;100
44127;BME280;29786;50.798;7.302;2023-02-18T02:37:59;99810;;;9.82;100
44127;BME280;29786;50.798;7.302;2023-02-18T02:42:25;99800;;;9.79;100
44127;BME280;29786;50.798;7.302;2023-02-18T02:46:26;99790;;;9.78;100
44127;BME280;29786;50.798;7.302;2023-02-18T02:51:28;99790;;;9.8;100
44127;BME280;29786;50.798;7.302;2023-02-18T02:55:22;99780;;;9.8;100
44127;BME280;29786;50.798;7.302;2023-02-18T03:00:29;99780;;;9.81;100
44127;BME280;29786;50.798;7.302;2023-02-18T03:04:29;99780;;;9.85;100
44127;BME280;29786;50.798;7.302;2023-02-18T03:09:20;99770;;;9.97;100
44127;BME280;29786;50.798;7.302;2023-02-18T03:14:27;99760;;;9.95;100
44127;BME280;29786;50.798;7.302;2023-02-18T03:18:23;99760;;;9.91;100
44127;BME280;29786;50.798;7.302;2023-02-18T03:23:20;99740;;;10;100
44127;BME280;29786;50.798;7.302;2023-02-18T03:28:20;99740;;;9.87;100
44127;BME280;29786;50.798;7.302;2023-02-18T03:28:58;99730;;;9.35;100
44127;BME280;29786;50.798;7.302;2023-02-18T03:32:20;99730;;;9.84;100
44127;BME280;29786;50.798;7.302;2023-02-18T03:37:20;99720;;;10.02;100
44127;BME280;29786;50.798;7.302;2023-02-18T03:42:29;99720;;;9.93;100
44127;BME280;29786;50.798;7.302;2023-02-18T03:46:28;99720;;;10.01;100
44127;BME280;29786;50.798;7.302;2023-02-18T03:50:23;99720;;;10.14;100
44127;BME280;29786;50.798;7.302;2023-02-18T03:55:23;99710;;;10.17;100
44127;BME280;29786;50.798;7.302;2023-02-18T04:00:32;99720;;;10.2;100
44127;BME280;29786;50.798;7.302;2023-02-18T04:03:21;99730;;;10.22;100
44127;BME280;29786;50.798;7.302;2023-02-18T04:08:26;99720;;;10.16;100
44127;BME280;29786;50.798;7.302;2023-02-18T04:12:21;99720;;;10.14;100
44127;BME280;29786;50.798;7.302;2023-02-18T04:17:22;99710;;;10.07;100
44127;BME280;29786;50.798;7.302;2023-02-18T04:22:23;99710;;;10.07;100
44127;BME280;29786;50.798;7.302;2023-02-18T04:27:32;99700;;;10.08;100
44127;BME280;29786;50.798;7.302;2023-02-18T04:30:20;99700;;;10.1;100
44127;BME280;29786;50.798;7.302;2023-02-18T04:35:21;99690;;;10.14;100
44127;BME280;29786;50.798;7.302;2023-02-18T04:40:22;99680;;;10.16;100
44127;BME280;29786;50.798;7.302;2023-02-18T04:45:23;99690;;;10.2;100
44127;BME280;29786;50.798;7.302;2023-02-18T04:49:26;99680;;;10.21;100
44127;BME280;29786;50.798;7.302;2023-02-18T04:53:21;99670;;;10.18;100
44127;BME280;29786;50.798;7.302;2023-02-18T04:58:26;99680;;;10.14;100
44127;BME280;29786;50.798;7.302;2023-02-18T05:02:29;99670;;;10.18;100
44127;BME280;29786;50.798;7.302;2023-02-18T05:06:23;99670;;;10.16;100
44127;BME280;29786;50.798;7.302;2023-02-18T05:10:18;99660;;;10.12;100
44127;BME280;29786;50.798;7.302;2023-02-18T05:15:23;99670;;;10.1;100
44127;BME280;29786;50.798;7.302;2023-02-18T05:19:22;99660;;;10.08;100
44127;BME280;29786;50.798;7.302;2023-02-18T05:24:23;99670;;;10.05;100
44127;BME280;29786;50.798;7.302;2023-02-18T05:29:28;99650;;;10.04;100
44127;BME280;29786;50.798;7.302;2023-02-18T05:33:23;99650;;;10.02;100
44127;BME280;29786;50.798;7.302;2023-02-18T05:38:28;99640;;;9.93;100
44127;BME280;29786;50.798;7.302;2023-02-18T05:42:22;99630;;;9.85;100
44127;BME280;29786;50.798;7.302;2023-02-18T05:47:23;99630;;;9.91;100
44127;BME280;29786;50.798;7.302;2023-02-18T05:51:18;99630;;;10;100
44127;BME280;29786;50.798;7.302;2023-02-18T05:56:19;99620;;;10.14;100
44127;BME280;29786;50.798;7.302;2023-02-18T06:01:20;99620;;;10.14;100
44127;BME280;29786;50.798;7.302;2023-02-18T06:06:29;99610;;;10.13;100
44127;BME280;29786;50.798;7.302;2023-02-18T06:10:23;99610;;;10.1;100
44127;BME280;29786;50.798;7.302;2023-02-18T06:14:18;99620;;;10.14;100
44127;BME280;29786;50.798;7.302;2023-02-18T06:19:19;99610;;;10.12;100
44127;BME280;29786;50.798;7.302;2023-02-18T06:19:56;99730;;;9.92;100
44127;BME280;29786;50.798;7.302;2023-02-18T06:23:18;99590;;;10.07;100
44127;BME280;29786;50.798;7.302;2023-02-18T06:29:25;99580;;;10.14;100
44127;BME280;29786;50.798;7.302;2023-02-18T06:33:20;99580;;;10.14;100
44127;BME280;29786;50.798;7.302;2023-02-18T06:38:20;99590;;;10.16;100
44127;BME280;29786;50.798;7.302;2023-02-18T06:43:25;99600;;;10.25;100
44127;BME280;29786;50.798;7.302;2023-02-18T06:47:20;99600;;;10.28;100
44127;BME280;29786;50.798;7.302;2023-02-18T06:47:57;99530;;;9.58;100
44127;BME280;29786;50.798;7.302;2023-02-18T06:52:29;99590;;;10.31;100
44127;BME280;29786;50.798;7.302;2023-02-18T06:55:18;99580;;;10.3;100
44127;BME280;29786;50.798;7.302;2023-02-18T07:00:19;99600;;;10.25;100
44127;BME280;29786;50.798;7.302;2023-02-18T07:05:20;99580;;;10.25;100
44127;BME280;29786;50.798;7.302;2023-02-18T07:09:19;99590;;;10.26;100
44127;BME280;29786;50.798;7.302;2023-02-18T07:14:23;99580;;;10.26;100
44127;BME280;29786;50.798;7.302;2023-02-18T07:18:18;99580;;;10.28;100
44127;BME280;29786;50.798;7.302;2023-02-18T07:23:19;99600;;;10.26;100
44127;BME280;29786;50.798;7.302;2023-02-18T07:23:56;99580;;;10.27;100
44127;BME280;29786;50.798;7.302;2023-02-18T07:27:22;99590;;;10.33;100
44127;BME280;29786;50.798;7.302;2023-02-18T07:32:23;99590;;;10.29;100
44127;BME280;29786;50.798;7.302;2023-02-18T07:37:24;99610;;;10.29;100
44127;BME280;29786;50.798;7.302;2023-02-18T07:41:27;99620;;;10.18;100
44127;BME280;29786;50.798;7.302;2023-02-18T07:45:22;99640;;;10.14;100
44127;BME280;29786;50.798;7.302;2023-02-18T07:50:22;99630;;;10.14;100
44127;BME280;29786;50.798;7.302;2023-02-18T07:54:25;99620;;;10.26;100
44127;BME280;29786;50.798;7.302;2023-02-18T07:58:21;99620;;;10.27;100
44127;BME280;29786;50.798;7.302;2023-02-18T08:03:22;99620;;;10.28;100
44127;BME280;29786;50.798;7.302;2023-02-18T08:08:24;99620;;;10.12;100
44127;BME280;29786;50.798;7.302;2023-02-18T08:13:23;99620;;;10.13;100
44127;BME280;29786;50.798;7.302;2023-02-18T08:18:24;99610;;;10.18;100
44127;BME280;29786;50.798;7.302;2023-02-18T08:22:27;99610;;;10.09;100
44127;BME280;29786;50.798;7.302;2023-02-18T08:26:25;99620;;;10.04;100
44127;BME280;29786;50.798;7.302;2023-02-18T08:27:02;99560;;;10.14;100
44127;BME280;29786;50.798;7.302;2023-02-18T08:30:25;99640;;;10.02;100
44127;BME280;29786;50.798;7.302;2023-02-18T08:34:19;99640;;;9.88;100
44127;BME280;29786;50.798;7.302;2023-02-18T08:39:20;99640;;;9.72;100
44127;BME280;29786;50.798;7.302;2023-02-18T08:44:25;99660;;;9.47;100
44127;BME280;29786;50.798;7.302;2023-02-18T08:48:20;99680;;;9.05;100
44127;BME280;29786;50.798;7.302;2023-02-18T08:53:20;99680;;;8.71;100
44127;BME280;29786;50.798;7.302;2023-02-18T08:58:21;99670;;;8.68;100
44127;BME280;29786;50.798;7.302;2023-02-18T09:02:20;99670;;;8.77;100
44127;BME280;29786;50.798;7.302;2023-02-18T09:07:21;99670;;;8.89;100
44127;BME280;29786;50.798;7.302;2023-02-18T09:12:22;99680;;;9.18;100
44127;BME280;29786;50.798;7.302;2023-02-18T09:17:23;99670;;;9.41;100
44127;BME280;29786;50.798;7.302;2023-02-18T09:22:23;99670;;;9.6;100
44127;BME280;29786;50.798;7.302;2023-02-18T09:27:32;99680;;;9.64;100
44127;BME280;29786;50.798;7.302;2023-02-18T09:30:21;99700;;;9.6;100
44127;BME280;29786;50.798;7.302;2023-02-18T09:34:20;99660;;;9.55;100
44127;BME280;29786;50.798;7.302;2023-02-18T09:39:21;99670;;;9.51;100
44127;BME280;29786;50.798;7.302;2023-02-18T09:44:24;99650;;;9.49;100
44127;BME280;29786;50.798;7.302;2023-02-18T09:48:24;99660;;;9.43;100
44127;BME280;29786;50.798;7.302;2023-02-18T09:53:22;99660;;;9.39;100
44127;BME280;29786;50.798;7.302;2023-02-18T09:58:24;99660;;;9.47;100
44127;BME280;29786;50.798;7.302;2023-02-18T10:03:27;99650;;;9.46;100
44127;BME280;29786;50.798;7.302;2023-02-18T10:07:24;99630;;;9.56;100
44127;BME280;29786;50.798;7.302;2023-02-18T10:12:24;99630;;;9.68;100
44127;BME280;29786;50.798;7.302;2023-02-18T10:17:24;99620;;;9.63;100
44127;BME280;29786;50.798;7.302;2023-02-18T10:22:25;99620;;;9.56;100
44127;BME280;29786;50.798;7.302;2023-02-18T10:26:19;99620;;;9.63;100
44127;BME280;29786;50.798;7.302;2023-02-18T10:31:27;99650;;;9.68;100
44127;BME280;29786;50.798;7.302;2023-02-18T10:35:23;99630;;;9.66;100
44127;BME280;29786;50.798;7.302;2023-02-18T10:40:28;99620;;;9.68;100
44127;BME280;29786;50.798;7.302;2023-02-18T10:44:24;99640;;;9.25;100
44127;BME280;29786;50.798;7.302;2023-02-18T10:49:55;99620;;;8.97;100
44127;BME280;29786;50.798;7.302;2023-02-18T10:49:59;99640;;;8.96;100
44127;BME280;29786;50.798;7.302;2023-02-18T10:50:34;99630;;;10.04;100
44127;BME280;29786;50.798;7.302;2023-02-18T10:51:13;99860;;;9.81;100
44127;BME280;29786;50.798;7.302;2023-02-18T10:53:32;99630;;;8.99;100
44127;BME280;29786;50.798;7.302;2023-02-18T10:56:57;99610;;;8.97;100
44127;BME280;29786;50.798;7.302;2023-02-18T11:01:20;99610;;;8.95;100
44127;BME280;29786;50.798;7.302;2023-02-18T11:06:31;99630;;;8.91;100
44127;BME280;29786;50.798;7.302;2023-02-18T11:10:25;99610;;;8.96;100
44127;BME280;29786;50.798;7.302;2023-02-18T11:14:34;99610;;;9.06;100
44127;BME280;29786;50.798;7.302;2023-02-18T11:15:28;99630;;;9;100
44127;BME280;29786;50.798;7.302;2023-02-18T11:19:40;99630;;;8.97;100
44127;BME280;29786;50.798;7.302;2023-02-18T11:23:23;99630;;;9.01;100
44127;BME280;29786;50.798;7.302;2023-02-18T11:27:20;99630;;;8.78;100
44127;BME280;29786;50.798;7.302;2023-02-18T11:32:19;99640;;;8.37;100
44127;BME280;29786;50.798;7.302;2023-02-18T11:37:20;99630;;;8.35;100
44127;BME280;29786;50.798;7.302;2023-02-18T11:42:21;99640;;;8.43;100
44127;BME280;29786;50.798;7.302;2023-02-18T11:43:06;99530;;;8.56;100
44127;BME280;29786;50.798;7.302;2023-02-18T11:46:24;99620;;;8.42;100
44127;BME280;29786;50.798;7.302;2023-02-18T11:51:26;99640;;;8.47;100
44127;BME280;29786;50.798;7.302;2023-02-18T11:55:20;99640;;;8.43;100
44127;BME280;29786;50.798;7.302;2023-02-18T12:00:41;99650;;;8.47;100
44127;BME280;29786;50.798;7.302;2023-02-18T12:04:26;99620;;;8.5;100
44127;BME280;29786;50.798;7.302;2023-02-18T12:09:26;99630;;;8.47;100
44127;BME280;29786;50.798;7.302;2023-02-18T12:14:33;99610;;;8.54;100
44127;BME280;29786;50.798;7.302;2023-02-18T12:17:25;99620;;;8.53;100
44127;BME280;29786;50.798;7.302;2023-02-18T12:23:01;99620;;;8.5;100
44127;BME280;29786;50.798;7.302;2023-02-18T12:27:28;99620;;;8.46;100
44127;BME280;29786;50.798;7.302;2023-02-18T12:36:26;99620;;;8.41;100
44127;BME280;29786;50.798;7.302;2023-02-18T12:41:34;99610;;;8.55;100
44127;BME280;29786;50.798;7.302;2023-02-18T12:46:30;99620;;;8.52;100
44127;BME280;29786;50.798;7.302;2023-02-18T12:50:29;99620;;;8.56;100
44127;BME280;29786;50.798;7.302;2023-02-18T12:55:35;99610;;;8.6;100
44127;BME280;29786;50.798;7.302;2023-02-18T12:59:33;99620;;;8.56;100
44127;BME280;29786;50.798;7.302;2023-02-18T13:04:26;99610;;;8.58;100
44127;BME280;29786;50.798;7.302;2023-02-18T13:08:34;99610;;;8.62;100
44127;BME280;29786;50.798;7.302;2023-02-18T13:12:24;99620;;;8.68;100
44127;BME280;29786;50.798;7.302;2023-02-18T13:17:23;99620;;;8.72;100
44127;BME280;29786;50.798;7.302;2023-02-18T13:22:28;99620;;;8.72;100
44127;BME280;29786;50.798;7.302;2023-02-18T13:26:22;99640;;;8.66;100
44127;BME280;29786;50.798;7.302;2023-02-18T13:31:26;99620;;;8.71;100
44127;BME280;29786;50.798;7.302;2023-02-18T13:36:31;99630;;;8.68;100
44127;BME280;29786;50.798;7.302;2023-02-18T13:41:33;99610;;;8.72;100
44127;BME280;29786;50.798;7.302;2023-02-18T13:45:22;99600;;;8.85;100
44127;BME280;29786;50.798;7.302;2023-02-18T13:50:27;99610;;;8.81;100
44127;BME280;29786;50.798;7.302;2023-02-18T13:54:23;99620;;;8.8;100
44127;BME280;29786;50.798;7.302;2023-02-18T13:59:22;99610;;;8.78;100
44127;BME280;29786;50.798;7.302;2023-02-18T14:04:48;99600;;;8.82;100
44127;BME280;29786;50.798;7.302;2023-02-18T14:08:33;99600;;;8.84;100
44127;BME280;29786;50.798;7.302;2023-02-18T14:12:23;99610;;;8.82;100
44127;BME280;29786;50.798;7.302;2023-02-18T14:17:28;99600;;;8.82;100
44127;BME280;29786;50.798;7.302;2023-02-18T14:21:34;99600;;;8.77;100
44127;BME280;29786;50.798;7.302;2023-02-18T14:26:24;99590;;;8.78;100
44127;BME280;29786;50.798;7.302;2023-02-18T14:30:34;99590;;;8.78;100
44127;BME280;29786;50.798;7.302;2023-02-18T14:33:19;99590;;;8.8;100
44127;BME280;29786;50.798;7.302;2023-02-18T14:34:04;99640;;;8.43;100
44127;BME280;29786;50.798;7.302;2023-02-18T14:38:34;99590;;;8.79;100
44127;BME280;29786;50.798;7.302;2023-02-18T14:42:26;99590;;;8.78;100
44127;BME280;29786;50.798;7.302;2023-02-18T14:47:28;99580;;;8.85;100
44127;BME280;29786;50.798;7.302;2023-02-18T14:51:20;99600;;;8.88;100
44127;BME280;29786;50.798;7.302;2023-02-18T14:56:20;99600;;;8.96;100
44127;BME280;29786;50.798;7.302;2023-02-18T15:01:22;99580;;;9.02;100
44127;BME280;29786;50.798;7.302;2023-02-18T15:01:57;99530;;;8.31;100
44127;BME280;29786;50.798;7.302;2023-02-18T15:05:25;99590;;;9.08;100
44127;BME280;29786;50.798;7.302;2023-02-18T15:10:33;99590;;;9.1;100
44127;BME280;29786;50.798;7.302;2023-02-18T15:14:20;99600;;;9.16;100
44127;BME280;29786;50.798;7.302;2023-02-18T15:19:25;99610;;;9.1;100
44127;BME280;29786;50.798;7.302;2023-02-18T15:23:19;99600;;;9.09;100
44127;BME280;29786;50.798;7.302;2023-02-18T15:28:20;99600;;;9.04;100
44127;BME280;29786;50.798;7.302;2023-02-18T15:33:28;99590;;;8.99;100
44127;BME280;29786;50.798;7.302;2023-02-18T15:37:23;99590;;;8.91;100
44127;BME280;29786;50.798;7.302;2023-02-18T15:41:19;99580;;;8.87;100
44127;BME280;29786;50.798;7.302;2023-02-18T15:46:23;99590;;;8.85;100
44127;BME280;29786;50.798;7.302;2023-02-18T15:51:25;99580;;;8.95;100
44127;BME280;29786;50.798;7.302;2023-02-18T15:55:51;99590;;;9.02;100
44127;BME280;29786;50.798;7.302;2023-02-18T16:00:25;99590;;;8.97;100
44127;BME280;29786;50.798;7.302;2023-02-18T16:04:19;99600;;;8.99;100
44127;BME280;29786;50.798;7.302;2023-02-18T16:09:24;99590;;;9.06;100
44127;BME280;29786;50.798;7.302;2023-02-18T16:14:22;99580;;;9.09;100
44127;BME280;29786;50.798;7.302;2023-02-18T16:18:36;99600;;;9.1;100
44127;BME280;29786;50.798;7.302;2023-02-18T16:23:25;99590;;;9.14;100
44127;BME280;29786;50.798;7.302;2023-02-18T16:27:29;99600;;;9.12;100
44127;BME280;29786;50.798;7.302;2023-02-18T16:31:21;99610;;;9.08;100
44127;BME280;29786;50.798;7.302;2023-02-18T16:36:22;99600;;;9.13;100
44127;BME280;29786;50.798;7.302;2023-02-18T16:41:23;99600;;;9.17;100
44127;BME280;29786;50.798;7.302;2023-02-18T16:46:24;99610;;;9.18;100
44127;BME280;29786;50.798;7.302;2023-02-18T16:50:19;99610;;;9.1;100
44127;BME280;29786;50.798;7.302;2023-02-18T16:55:21;99610;;;9.09;100
44127;BME280;29786;50.798;7.302;2023-02-18T16:55:57;99610;;;9.1;100
44127;BME280;29786;50.798;7.302;2023-02-18T16:56:34;99590;;;9.01;100
44127;BME280;29786;50.798;7.302;2023-02-18T16:57:11;99620;;;9.01;100
44127;BME280;29786;50.798;7.302;2023-02-18T16:59:27;99610;;;9.13;100
44127;BME280;29786;50.798;7.302;2023-02-18T17:03:22;99610;;;9.18;100
44127;BME280;29786;50.798;7.302;2023-02-18T17:08:23;99610;;;9.22;100
44127;BME280;29786;50.798;7.302;2023-02-18T17:13:24;99610;;;9.18;100
44127;BME280;29786;50.798;7.302;2023-02-18T17:18:28;99620;;;9.21;100
44127;BME280;29786;50.798;7.302;2023-02-18T17:22:23;99610;;;9.22;100
44127;BME280;29786;50.798;7.302;2023-02-18T17:27:24;99620;;;9.27;100
44127;BME280;29786;50.798;7.302;2023-02-18T17:32:28;99620;;;9.17;100
44127;BME280;29786;50.798;7.302;2023-02-18T17:36:23;99620;;;9.18;100
44127;BME280;29786;50.798;7.302;2023-02-18T17:40:20;99620;;;9.21;100
44127;BME280;29786;50.798;7.302;2023-02-18T17:45:23;99630;;;9.25;100
44127;BME280;29786;50.798;7.302;2023-02-18T17:50:20;99630;;;9.25;100
44127;BME280;29786;50.798;7.302;2023-02-18T17:55:23;99620;;;9.24;100
44127;BME280;29786;50.798;7.302;2023-02-18T18:00:23;99630;;;9.22;100
44127;BME280;29786;50.798;7.302;2023-02-18T18:05:31;99610;;;9.21;100
44127;BME280;29786;50.798;7.302;2023-02-18T18:08:19;99620;;;9.18;100
44127;BME280;29786;50.798;7.302;2023-02-18T18:13:24;99610;;;9.18;100
44127;BME280;29786;50.798;7.302;2023-02-18T18:18:29;99610;;;9.18;100
44127;BME280;29786;50.798;7.302;2023-02-18T18:22:24;99620;;;9.2;100
44127;BME280;29786;50.798;7.302;2023-02-18T18:26:19;99610;;;9.18;100
44127;BME280;29786;50.798;7.302;2023-02-18T18:32:29;99630;;;9.1;100
44127;BME280;29786;50.798;7.302;2023-02-18T18:35:20;99620;;;9.1;100
44127;BME280;29786;50.798;7.302;2023-02-18T18:40:20;99620;;;9.06;100
44127;BME280;29786;50.798;7.302;2023-02-18T18:45:22;99620;;;9.12;100
44127;BME280;29786;50.798;7.302;2023-02-18T18:50:22;99630;;;9.18;100
44127;BME280;29786;50.798;7.302;2023-02-18T18:55:27;99620;;;9.21;100
44127;BME280;29786;50.798;7.302;2023-02-18T18:59:25;99630;;;9.26;100
44127;BME280;29786;50.798;7.302;2023-02-18T19:03:20;99620;;;9.27;100
44127;BME280;29786;50.798;7.302;2023-02-18T19:03:56;99620;;;9.26;100
44127;BME280;29786;50.798;7.302;2023-02-18T19:04:34;99610;;;9.13;100
44127;BME280;29786;50.798;7.302;2023-02-18T19:05:14;99620;;;9.1;100
44127;BME280;29786;50.798;7.302;2023-02-18T19:07:27;99610;;;9.29;100
44127;BME280;29786;50.798;7.302;2023-02-18T19:11:21;99610;;;9.27;100
44127;BME280;29786;50.798;7.302;2023-02-18T19:16:26;99610;;;9.28;100
44127;BME280;29786;50.798;7.302;2023-02-18T19:21:23;99600;;;9.33;100
44127;BME280;29786;50.798;7.302;2023-02-18T19:26:24;99600;;;9.27;100
44127;BME280;29786;50.798;7.302;2023-02-18T19:31:33;99590;;;9.21;100
44127;BME280;29786;50.798;7.302;2023-02-18T19:34:22;99590;;;9.22;100
44127;BME280;29786;50.798;7.302;2023-02-18T19:39:27;99590;;;9.22;100
44127;BME280;29786;50.798;7.302;2023-02-18T19:43:21;99600;;;9.17;100
44127;BME280;29786;50.798;7.302;2023-02-18T19:48:22;99590;;;9.18;100
44127;BME280;29786;50.798;7.302;2023-02-18T19:53:31;99590;;;9.24;100
44127;BME280;29786;50.798;7.302;2023-02-18T19:56:20;99600;;;9.22;100
44127;BME280;29786;50.798;7.302;2023-02-18T19:56:57;99610;;;9.28;100
44127;BME280;29786;50.798;7.302;2023-02-18T20:00:20;99590;;;9.2;100
44127;BME280;29786;50.798;7.302;2023-02-18T20:00:56;99590;;;9.21;100
44127;BME280;29786;50.798;7.302;2023-02-18T20:04:22;99600;;;9.22;100
44127;BME280;29786;50.798;7.302;2023-02-18T20:09:23;99600;;;9.22;100
44127;BME280;29786;50.798;7.302;2023-02-18T20:14:24;99600;;;9.18;100
44127;BME280;29786;50.798;7.302;2023-02-18T20:18:18;99600;;;9.18;100
44127;BME280;29786;50.798;7.302;2023-02-18T20:23:23;99590;;;9.14;100
44127;BME280;29786;50.798;7.302;2023-02-18T20:28:24;99580;;;9.13;100
44127;BME280;29786;50.798;7.302;2023-02-18T20:32:19;99580;;;9.17;100
44127;BME280;29786;50.798;7.302;2023-02-18T20:37:24;99580;;;9.14;100
44127;BME280;29786;50.798;7.302;2023-02-18T20:41:23;99580;;;8.99;100
44127;BME280;29786;50.798;7.302;2023-02-18T20:45:18;99580;;;8.89;100
44127;BME280;29786;50.798;7.302;2023-02-18T20:50:18;99580;;;8.84;100
44127;BME280;29786;50.798;7.302;2023-02-18T20:55:19;99570;;;8.82;100
44127;BME280;29786;50.798;7.302;2023-02-18T21:00:20;99550;;;8.82;100
44127;BME280;29786;50.798;7.302;2023-02-18T21:00:58;99520;;;8.72;100
44127;BME280;29786;50.798;7.302;2023-02-18T21:04:19;99550;;;8.89;100
44127;BME280;29786;50.798;7.302;2023-02-18T21:09:24;99540;;;8.93;100
44127;BME280;29786;50.798;7.302;2023-02-18T21:13:19;99540;;;8.95;100
44127;BME280;29786;50.798;7.302;2023-02-18T21:18:19;99550;;;9;100
44127;BME280;29786;50.798;7.302;2023-02-18T21:18:57;99550;;;9;100
44127;BME280;29786;50.798;7.302;2023-02-18T21:19:34;99560;;;8.83;100
44127;BME280;29786;50.798;7.302;2023-02-18T21:20:11;99610;;;9.28;100
44127;BME280;29786;50.798;7.302;2023-02-18T21:22:31;99560;;;8.99;100
44127;BME280;29786;50.798;7.302;2023-02-18T21:25:20;99540;;;8.97;100
44127;BME280;29786;50.798;7.302;2023-02-18T21:29:19;99540;;;8.96;100
44127;BME280;29786;50.798;7.302;2023-02-18T21:34:28;99530;;;8.93;100
44127;BME280;29786;50.798;7.302;2023-02-18T21:38:22;99530;;;8.96;100
44127;BME280;29786;50.798;7.302;2023-02-18T21:43:23;99520;;;8.96;100
44127;BME280;29786;50.798;7.302;2023-02-18T21:47:26;99530;;;8.97;100
44127;BME280;29786;50.798;7.302;2023-02-18T21:51:32;99490;;;8.81;100
44127;BME280;29786;50.798;7.302;2023-02-18T21:54:19;99510;;;8.97;100
44127;BME280;29786;50.798;7.302;2023-02-18T21:59:28;99520;;;8.97;100
44127;BME280;29786;50.798;7.302;2023-02-18T22:03:26;99530;;;8.97;100
44127;BME280;29786;50.798;7.302;2023-02-18T22:07:22;99520;;;8.92;100
44127;BME280;29786;50.798;7.302;2023-02-18T22:12:22;99520;;;8.93;100
44127;BME280;29786;50.798;7.302;2023-02-18T22:17:23;99520;;;8.82;100
44127;BME280;29786;50.798;7.302;2023-02-18T22:22:23;99520;;;8.76;100
44127;BME280;29786;50.798;7.302;2023-02-18T22:26:18;99520;;;8.74;100
44127;BME280;29786;50.798;7.302;2023-02-18T22:31:19;99510;;;8.7;100
44127;BME280;29786;50.798;7.302;2023-02-18T22:36:31;99510;;;8.66;100
44127;BME280;29786;50.798;7.302;2023-02-18T22:40:23;99510;;;8.64;100
44127;BME280;29786;50.798;7.302;2023-02-18T22:45:24;99510;;;8.66;100
44127;BME280;29786;50.798;7.302;2023-02-18T22:49:18;99510;;;8.66;100
44127;BME280;29786;50.798;7.302;2023-02-18T22:54:20;99500;;;8.62;100
44127;BME280;29786;50.798;7.302;2023-02-18T22:59:28;99500;;;8.64;100
44127;BME280;29786;50.798;7.302;2023-02-18T23:03:24;99500;;;8.57;100
44127;BME280;29786;50.798;7.302;2023-02-18T23:08:24;99490;;;8.58;100
44127;BME280;29786;50.798;7.302;2023-02-18T23:13:25;99480;;;8.57;100
44127;BME280;29786;50.798;7.302;2023-02-18T23:17:19;99460;;;8.6;100